Latest Weather Observations for Darwin Harbour

IDD60801

Issued at 6:01 pm CST Saturday 1 October 2016 (issued every 30 minutes, with the page automatically refreshed every 10 minutes)

About weather observations | Map of weather stations | Latest weather observations for NT | Other Formats
Station Details ID: 014072 Name: DARWIN NTC AWS Lat: -12.47 Lon: 130.85 Height: 0.0 m
Data from the previous 72 hours. | See also: Recent months for locations in Northern Territory
Date/Time
CST
Temp
°C
App
Temp
°C
Dew
Point
°C
Rel
Hum
%
Delta-T
°C
Wind Press
QNH
hPa
Press
MSL
hPa
Rain since
9am
mm
Dir  Spd
km/h
Gust
km/h
Spd
kts
Gust
kts
01/06:00pm 31.7 - - - - NNW 13 24 7 13 1007.7 1007.6 -
01/05:30pm 31.8 - - - - WNW 13 19 7 10 1007.5 1007.4 -
01/05:00pm 32.8 - - - - WNW 7 13 4 7 1007.1 1007.0 -
01/04:30pm 33.4 - - - - WNW 9 17 5 9 1007.1 1007.0 -
01/04:00pm 32.3 - - - - WNW 13 20 7 11 1007.3 1007.2 -
01/03:30pm 31.6 - - - - WNW 15 22 8 12 1007.7 1007.6 -
01/03:00pm 30.2 - - - - NW 20 28 11 15 1008.0 1007.9 -
01/02:30pm 30.3 - - - - WNW 20 28 11 15 1008.5 1008.4 -
01/02:00pm 30.5 - - - - NW 15 26 8 14 1008.9 1008.8 -
01/01:30pm 31.3 - - - - WNW 13 22 7 12 1009.3 1009.2 -
01/01:00pm 30.7 - - - - WNW 13 20 7 11 1009.7 1009.6 -
01/12:30pm 30.4 - - - - WNW 13 20 7 11 1010.0 1009.9 -
01/12:00pm 31.1 - - - - WNW 11 19 6 10 1010.5 1010.4 -
01/11:30am 30.1 - - - - WNW 13 20 7 11 1010.8 1010.7 -
01/11:00am 29.9 - - - - W 9 13 5 7 1011.1 1011.0 -
01/10:30am 29.7 - - - - W 7 13 4 7 1011.3 1011.2 -
01/10:00am 29.4 - - - - W 7 9 4 5 1011.6 1011.5 -
01/09:30am 29.1 - - - - W 9 13 5 7 1011.6 1011.5 -
01/09:00am 29.2 - - - - WSW 6 7 3 4 1011.4 1011.3 -
01/08:30am 29.1 - - - - W 7 9 4 5 1011.0 1010.9 -
01/08:00am 29.0 - - - - W 7 11 4 6 1010.8 1010.7 -
01/07:30am 28.9 - - - - W 7 11 4 6 1010.3 1010.2 -
01/07:00am 29.1 - - - - NNE 4 6 2 3 1010.0 1009.9 -
01/06:30am 28.6 - - - - NW 4 7 2 4 1009.7 1009.6 -
01/06:00am 28.5 - - - - WNW 4 9 2 5 1009.2 1009.1 -
01/05:30am 28.9 - - - - WNW 6 11 3 6 1008.9 1008.8 -
01/05:00am 28.6 - - - - NW 6 9 3 5 1008.3 1008.2 -
01/04:30am 28.6 - - - - NW 7 13 4 7 1008.0 1007.9 -
01/04:00am 28.7 - - - - NW 9 15 5 8 1007.8 1007.7 -
01/03:30am 28.7 - - - - NW 6 13 3 7 1007.9 1007.8 -
01/03:00am 28.5 - - - - NW 9 15 5 8 1007.9 1007.8 -
01/02:30am 28.6 - - - - NW 7 13 4 7 1008.2 1008.1 -
01/02:00am 29.0 - - - - NNW 7 13 4 7 1008.2 1008.1 -
01/01:30am 28.8 - - - - NW 7 15 4 8 1008.3 1008.2 -
01/01:00am 29.0 - - - - NW 7 13 4 7 1008.6 1008.5 -
01/12:30am 29.2 - - - - N 4 9 2 5 1008.7 1008.6 -
01/12:00am 28.6 - - - - NNW 7 13 4 7 1008.7 1008.6 -
 
Date/Time
CST
Temp
°C
App
Temp
°C
Dew
Point
°C
Rel
Hum
%
Delta-T
°C
Wind Press
QNH
hPa
Press
MSL
hPa
Rain since
9am
mm
Dir  Spd
km/h
Gust
km/h
Spd
kts
Gust
kts
30/11:30pm 29.1 - - - - NNW 4 9 2 5 1009.0 1008.9 -
30/11:00pm 29.1 - - - - N 4 7 2 4 1008.8 1008.7 -
30/10:30pm 29.5 - - - - NNW 4 9 2 5 1008.5 1008.4 -
30/10:00pm 29.0 - - - - NW 6 9 3 5 1008.3 1008.2 -
30/09:30pm 29.3 - - - - W 9 13 5 7 1008.4 1008.3 -
30/09:00pm 29.2 - - - - W 9 13 5 7 1008.3 1008.2 -
30/08:30pm 29.0 - - - - WNW 6 11 3 6 1008.0 1007.9 -
30/08:00pm 29.0 - - - - NW 7 15 4 8 1007.8 1007.7 -
30/07:30pm 28.9 - - - - NW 11 17 6 9 1007.2 1007.1 -
30/07:00pm 28.8 - - - - NW 9 17 5 9 1006.8 1006.7 -
30/06:30pm 28.9 - - - - WNW 7 13 4 7 1006.6 1006.5 -
30/06:00pm 28.9 - - - - NW 6 9 3 5 1006.3 1006.2 -
30/05:30pm 29.1 - - - - NNW 6 9 3 5 1006.1 1006.0 -
30/05:00pm 27.1 - - - - WNW 9 17 5 9 1006.0 1005.9 -
30/04:30pm 25.8 - - - - N 15 30 8 16 1006.2 1006.1 -
30/04:00pm 24.6 - - - - NE 17 35 9 19 1007.1 1007.0 -
30/03:30pm 27.3 - - - - ENE 26 44 14 24 1007.6 1007.5 -
30/03:00pm 30.5 - - - - WNW 20 30 11 16 1007.1 1007.0 -
30/02:30pm 30.4 - - - - WNW 20 32 11 17 1006.9 1006.8 -
30/02:00pm 29.4 - - - - W 15 22 8 12 1007.2 1007.1 -
30/01:30pm 30.7 - - - - WNW 17 26 9 14 1007.6 1007.5 -
30/01:00pm 30.6 - - - - WNW 17 26 9 14 1008.0 1007.9 -
30/12:30pm 31.0 - - - - WNW 13 19 7 10 1008.7 1008.6 -
30/12:00pm 30.6 - - - - WNW 11 17 6 9 1009.2 1009.1 -
30/11:30am 30.1 - - - - W 9 15 5 8 1009.7 1009.6 -
30/11:00am 30.1 - - - - W 9 15 5 8 1010.0 1009.9 -
30/10:30am 29.6 - - - - WSW 6 7 3 4 1010.1 1010.0 -
30/10:00am 29.8 - - - - SW 4 6 2 3 1010.2 1010.1 -
30/09:30am 29.5 - - - - WSW 4 6 2 3 1010.2 1010.1 -
30/09:00am 28.8 - - - - W 6 9 3 5 1010.1 1010.0 -
30/08:30am 28.7 - - - - WSW 9 13 5 7 1009.8 1009.7 -
30/08:00am 28.5 - - - - WSW 7 11 4 6 1009.4 1009.3 -
30/07:30am 28.6 - - - - WSW 6 9 3 5 1009.0 1008.9 -
30/07:00am 28.5 - - - - NNE 2 6 1 3 1008.6 1008.5 -
30/06:30am 28.5 - - - - NNE 2 4 1 2 1008.3 1008.2 -
30/06:00am 28.3 - - - - NNW 6 7 3 4 1007.9 1007.8 -
30/05:30am 28.4 - - - - NW 6 9 3 5 1007.4 1007.3 -
30/05:00am 28.5 - - - - NW 6 11 3 6 1007.3 1007.2 -
30/04:30am 28.4 - - - - NNW 6 13 3 7 1006.7 1006.6 -
30/04:00am 28.7 - - - - NW 6 13 3 7 1006.9 1006.8 -
30/03:30am 28.6 - - - - NNW 7 13 4 7 1006.9 1006.8 -
30/03:00am 29.1 - - - - NNW 6 15 3 8 1007.0 1006.9 -
30/02:30am 29.0 - - - - NW 6 15 3 8 1007.3 1007.2 -
30/02:00am 28.9 - - - - NNW 7 17 4 9 1007.6 1007.5 -
30/01:30am 28.8 - - - - NW 7 17 4 9 1007.8 1007.7 -
30/01:00am 28.9 - - - - NW 11 17 6 9 1008.2 1008.1 -
30/12:30am 28.9 - - - - NW 9 19 5 10 1008.6 1008.5 -
30/12:00am 29.1 - - - - NW 9 20 5 11 1008.6 1008.5 -
 
Date/Time
CST
Temp
°C
App
Temp
°C
Dew
Point
°C
Rel
Hum
%
Delta-T
°C
Wind Press
QNH
hPa
Press
MSL
hPa
Rain since
9am
mm
Dir  Spd
km/h
Gust
km/h
Spd
kts
Gust
kts
29/11:30pm 29.1 - - - - NW 9 19 5 10 1008.7 1008.6 -
29/11:00pm 29.2 - - - - NW 11 19 6 10 1008.9 1008.8 -
29/10:30pm 29.2 - - - - WNW 13 19 7 10 1008.8 1008.7 -
29/10:00pm 29.3 - - - - NW 9 17 5 9 1008.7 1008.6 -
29/09:30pm 29.3 - - - - WNW 17 20 9 11 1008.4 1008.3 -
29/09:00pm 29.3 - - - - WNW 15 20 8 11 1008.3 1008.2 -
29/08:30pm 29.4 - - - - WNW 19 24 10 13 1007.9 1007.8 -
29/08:00pm 29.5 - - - - WNW 15 20 8 11 1007.4 1007.3 -
29/07:30pm 29.5 - - - - WNW 19 24 10 13 1007.0 1006.9 -
29/07:00pm 29.7 - - - - WNW 20 24 11 13 1006.6 1006.5 -
29/06:30pm 29.6 - - - - NW 11 17 6 9 1006.2 1006.1 -
29/06:00pm 29.4 - - - - NNW 9 15 5 8 1005.8 1005.7 -
29/05:30pm 28.4 - - - - N 13 22 7 12 1006.0 1005.9 -
29/05:00pm 28.8 - - - - N 13 22 7 12 1005.9 1005.8 -
29/04:30pm 29.9 - - - - SSW 15 24 8 13 1006.3 1006.2 -
29/04:00pm 30.8 - - - - W 20 26 11 14 1005.8 1005.7 -
29/03:30pm 29.7 - - - - WNW 19 28 10 15 1005.5 1005.4 -
29/03:00pm 29.1 - - - - W 24 33 13 18 1005.8 1005.7 -
29/02:30pm 30.2 - - - - WNW 17 24 9 13 1006.2 1006.1 -
29/02:00pm 30.4 - - - - WNW 20 24 11 13 1006.6 1006.5 -
29/01:30pm 32.3 - - - - WNW 13 24 7 13 1007.2 1007.1 -
29/01:00pm 31.7 - - - - W 7 11 4 6 1007.8 1007.7 -
29/12:30pm 31.5 - - - - W 4 6 2 3 1008.3 1008.2 -
29/12:00pm 31.6 - - - - S 2 4 1 2 1008.8 1008.7 -
29/11:30am 31.1 - - - - SSW 4 6 2 3 1009.3 1009.2 -
29/11:00am 31.0 - - - - SE 4 7 2 4 1009.7 1009.6 -
29/10:30am 30.1 - - - - SSW 6 7 3 4 1010.0 1009.9 -
29/10:00am 29.9 - - - - SW 6 11 3 6 1010.0 1009.9 -
29/09:30am 29.2 - - - - SW 7 9 4 5 1010.0 1009.9 -
29/09:00am 29.0 - - - - WSW 7 9 4 5 1009.7 1009.6 -
29/08:30am 28.9 - - - - WSW 9 11 5 6 1009.5 1009.4 -
29/08:00am 28.7 - - - - WSW 13 17 7 9 1009.1 1009.0 -
29/07:30am 28.6 - - - - WSW 11 15 6 8 1008.7 1008.6 -
29/07:00am 28.8 - - - - NNW 4 7 2 4 1008.2 1008.1 -
29/06:30am 28.7 - - - - NW 4 6 2 3 1007.9 1007.8 -
29/06:00am 28.3 - - - - N 2 6 1 3 1007.5 1007.4 -
29/05:30am 28.1 - - - - NE 4 7 2 4 1007.3 1007.2 -
29/05:00am 28.5 - - - - N 4 7 2 4 1007.1 1007.0 -
29/04:30am 28.6 - - - - W 4 6 2 3 1007.1 1007.0 -
29/04:00am 28.5 - - - - NNW 4 7 2 4 1006.9 1006.8 -
29/03:30am 28.5 - - - - W 2 4 1 2 1007.1 1007.0 -
29/03:00am 28.5 - - - - NW 4 6 2 3 1007.2 1007.1 -
29/02:30am 28.5 - - - - NW 2 6 1 3 1007.4 1007.3 -
29/02:00am 28.6 - - - - WNW 4 6 2 3 1008.0 1007.9 -
29/01:30am 28.9 - - - - W 4 6 2 3 1008.4 1008.3 -
29/01:00am 28.9 - - - - WSW 6 9 3 5 1008.9 1008.8 -
29/12:30am 28.9 - - - - WSW 6 9 3 5 1009.2 1009.1 -
29/12:00am 28.9 - - - - WSW 6 9 3 5 1009.3 1009.2 -
 
Date/Time
CST
Temp
°C
App
Temp
°C
Dew
Point
°C
Rel
Hum
%
Delta-T
°C
Wind Press
QNH
hPa
Press
MSL
hPa
Rain since
9am
mm
Dir  Spd
km/h
Gust
km/h
Spd
kts
Gust
kts
28/11:30pm 28.9 - - - - WSW 6 7 3 4 1009.6 1009.5 -
28/11:00pm 29.0 - - - - WSW 7 9 4 5 1009.5 1009.4 -
28/10:30pm 29.1 - - - - SW 11 13 6 7 1009.6 1009.5 -
28/10:00pm 29.4 - - - - SW 11 15 6 8 1009.6 1009.5 -
28/09:30pm 29.5 - - - - WSW 11 13 6 7 1009.3 1009.2 -
28/09:00pm 29.6 - - - - WSW 13 17 7 9 1009.1 1009.0 -
28/08:30pm 29.8 - - - - WSW 11 15 6 8 1008.8 1008.7 -
28/08:00pm 30.4 - - - - WSW 13 17 7 9 1008.4 1008.3 -
28/07:30pm 30.5 - - - - W 13 17 7 9 1008.1 1008.0 -
28/07:00pm 31.0 - - - - W 13 15 7 8 1007.8 1007.7 -
28/06:30pm 31.8 - - - - NW 6 9 3 5 1007.5 1007.4 -

Other Formats:

Comma delimited format used in spreadsheet applications
http://www.bom.gov.au/fwo/IDD60801/IDD60801.95122.axf

JavaScript Object Notation format (JSON) in row-major order
http://www.bom.gov.au/fwo/IDD60801/IDD60801.95122.json